sensor_id;sensor_type;location;lat;lon;timestamp;pressure;altitude;pressure_sealevel;temperature;humidity
52032;BME280;38044;45.148;39.604;2023-02-17T00:00:33;102031.53;;;-6.38;79.45
52032;BME280;38044;45.148;39.604;2023-02-17T00:02:59;102226.41;;;-5.29;79.90
52032;BME280;38044;45.148;39.604;2023-02-17T00:05:25;102216.88;;;-5.30;80.33
52032;BME280;38044;45.148;39.604;2023-02-17T00:07:52;102249.31;;;-5.03;80.37
52032;BME280;38044;45.148;39.604;2023-02-17T00:10:19;102236.03;;;-5.02;80.54
52032;BME280;38044;45.148;39.604;2023-02-17T00:12:44;102232.66;;;-5.12;80.60
52032;BME280;38044;45.148;39.604;2023-02-17T00:15:10;102243.19;;;-4.94;80.46
52032;BME280;38044;45.148;39.604;2023-02-17T00:17:36;102223.94;;;-5.12;79.73
52032;BME280;38044;45.148;39.604;2023-02-17T00:20:03;102069.97;;;-6.01;79.08
52032;BME280;38044;45.148;39.604;2023-02-17T00:22:29;102245.84;;;-5.04;79.11
52032;BME280;38044;45.148;39.604;2023-02-17T00:24:55;102184.66;;;-5.40;79.15
52032;BME280;38044;45.148;39.604;2023-02-17T00:27:21;102228.94;;;-5.09;79.28
52032;BME280;38044;45.148;39.604;2023-02-17T00:29:47;102237.47;;;-5.07;79.28
52032;BME280;38044;45.148;39.604;2023-02-17T00:32:12;102198.69;;;-5.31;79.30
52032;BME280;38044;45.148;39.604;2023-02-17T00:34:38;102188.63;;;-5.36;79.40
52032;BME280;38044;45.148;39.604;2023-02-17T00:37:04;102244.66;;;-5.09;79.53
52032;BME280;38044;45.148;39.604;2023-02-17T00:39:30;102233.19;;;-5.08;79.66
52032;BME280;38044;45.148;39.604;2023-02-17T00:41:56;102230.97;;;-5.03;79.65
52032;BME280;38044;45.148;39.604;2023-02-17T00:44:23;102062.97;;;-6.10;79.94
52032;BME280;38044;45.148;39.604;2023-02-17T00:46:49;102183.78;;;-5.31;79.81
52032;BME280;38044;45.148;39.604;2023-02-17T00:49:21;102210.63;;;-5.01;80.03
52032;BME280;38044;45.148;39.604;2023-02-17T00:51:47;102013.94;;;-6.18;79.48
52032;BME280;38044;45.148;39.604;2023-02-17T00:54:14;101994.38;;;-6.42;78.98
52032;BME280;38044;45.148;39.604;2023-02-17T00:56:41;102214.25;;;-5.02;79.22
52032;BME280;38044;45.148;39.604;2023-02-17T00:59:07;102062.09;;;-6.01;78.83
52032;BME280;38044;45.148;39.604;2023-02-17T01:01:34;102223.09;;;-5.03;78.92
52032;BME280;38044;45.148;39.604;2023-02-17T01:04:00;102176.59;;;-5.29;78.83
52032;BME280;38044;45.148;39.604;2023-02-17T01:06:29;102056.66;;;-5.90;78.58
52032;BME280;38044;45.148;39.604;2023-02-17T01:08:56;101871.03;;;-7.21;78.28
52032;BME280;38044;45.148;39.604;2023-02-17T01:11:25;102008.72;;;-6.18;78.13
52032;BME280;38044;45.148;39.604;2023-02-17T01:13:51;102021.50;;;-6.05;78.04
52032;BME280;38044;45.148;39.604;2023-02-17T01:16:22;102071.44;;;-5.71;78.17
52032;BME280;38044;45.148;39.604;2023-02-17T01:18:48;102024.50;;;-6.00;77.61
52032;BME280;38044;45.148;39.604;2023-02-17T01:21:25;102215.75;;;-4.82;77.65
52032;BME280;38044;45.148;39.604;2023-02-17T01:23:53;102206.84;;;-4.89;77.53
52032;BME280;38044;45.148;39.604;2023-02-17T01:26:21;102224.53;;;-4.91;77.51
52032;BME280;38044;45.148;39.604;2023-02-17T01:28:48;102157.56;;;-5.31;77.59
52032;BME280;38044;45.148;39.604;2023-02-17T01:31:15;102108.88;;;-5.61;77.59
52032;BME280;38044;45.148;39.604;2023-02-17T01:33:41;102163.03;;;-5.24;77.49
52032;BME280;38044;45.148;39.604;2023-02-17T01:36:10;102188.00;;;-5.02;77.62
52032;BME280;38044;45.148;39.604;2023-02-17T01:38:37;102197.00;;;-4.87;77.40
52032;BME280;38044;45.148;39.604;2023-02-17T01:41:03;102032.88;;;-5.79;76.93
52032;BME280;38044;45.148;39.604;2023-02-17T01:43:30;102112.78;;;-5.19;76.64
52032;BME280;38044;45.148;39.604;2023-02-17T01:45:58;102170.13;;;-4.89;76.32
52032;BME280;38044;45.148;39.604;2023-02-17T01:48:28;101966.59;;;-5.97;75.99
52032;BME280;38044;45.148;39.604;2023-02-17T01:51:13;102219.81;;;-4.69;75.79
52032;BME280;38044;45.148;39.604;2023-02-17T01:53:43;102215.03;;;-4.56;75.89
52032;BME280;38044;45.148;39.604;2023-02-17T01:56:13;102033.56;;;-5.59;75.58
52032;BME280;38044;45.148;39.604;2023-02-17T01:58:42;102153.69;;;-4.73;75.51
52032;BME280;38044;45.148;39.604;2023-02-17T02:01:09;101983.78;;;-5.77;75.01
52032;BME280;38044;45.148;39.604;2023-02-17T02:03:37;102195.38;;;-4.52;74.88
52032;BME280;38044;45.148;39.604;2023-02-17T02:06:10;102069.06;;;-5.47;74.65
52032;BME280;38044;45.148;39.604;2023-02-17T02:09:08;102197.31;;;-4.54;75.06
52032;BME280;38044;45.148;39.604;2023-02-17T02:11:36;102008.28;;;-5.68;74.64
52032;BME280;38044;45.148;39.604;2023-02-17T02:14:04;102182.19;;;-4.60;74.73
52032;BME280;38044;45.148;39.604;2023-02-17T02:33:58;102190.00;;;-4.24;74.23
52032;BME280;38044;45.148;39.604;2023-02-17T02:36:31;102200.25;;;-4.13;74.18
52032;BME280;38044;45.148;39.604;2023-02-17T02:39:15;102134.47;;;-4.38;74.01
52032;BME280;38044;45.148;39.604;2023-02-17T02:41:45;102182.06;;;-4.07;74.00
52032;BME280;38044;45.148;39.604;2023-02-17T02:44:14;102146.19;;;-4.24;73.83
52032;BME280;38044;45.148;39.604;2023-02-17T02:46:42;102189.06;;;-3.97;73.67
52032;BME280;38044;45.148;39.604;2023-02-17T02:49:08;102182.94;;;-3.98;73.29
52032;BME280;38044;45.148;39.604;2023-02-17T02:52:01;102206.03;;;-3.83;73.37
52032;BME280;38044;45.148;39.604;2023-02-17T02:57:35;102154.81;;;-3.79;73.08
52032;BME280;38044;45.148;39.604;2023-02-17T03:00:22;102183.53;;;-3.52;72.82
52032;BME280;38044;45.148;39.604;2023-02-17T03:02:56;102184.63;;;-3.63;72.41
52032;BME280;38044;45.148;39.604;2023-02-17T03:08:14;102019.09;;;-4.65;72.27
52032;BME280;38044;45.148;39.604;2023-02-17T03:10:45;102189.81;;;-3.45;72.29
52032;BME280;38044;45.148;39.604;2023-02-17T03:13:11;102129.50;;;-3.89;72.31
52032;BME280;38044;45.148;39.604;2023-02-17T03:15:37;102189.41;;;-3.58;72.63
52032;BME280;38044;45.148;39.604;2023-02-17T03:18:03;102149.22;;;-3.85;72.68
52032;BME280;38044;45.148;39.604;2023-02-17T03:20:33;102141.41;;;-3.68;72.56
52032;BME280;38044;45.148;39.604;2023-02-17T03:23:00;102172.72;;;-3.49;72.03
52032;BME280;38044;45.148;39.604;2023-02-17T03:25:26;102190.13;;;-3.48;72.13
52032;BME280;38044;45.148;39.604;2023-02-17T03:27:52;102172.22;;;-3.44;72.05
52032;BME280;38044;45.148;39.604;2023-02-17T03:30:18;102151.63;;;-3.57;71.90
52032;BME280;38044;45.148;39.604;2023-02-17T03:32:44;102175.69;;;-3.35;71.79
52032;BME280;38044;45.148;39.604;2023-02-17T03:35:10;102012.44;;;-4.25;71.65
52032;BME280;38044;45.148;39.604;2023-02-17T03:37:36;102142.28;;;-3.51;71.79
52032;BME280;38044;45.148;39.604;2023-02-17T03:40:03;102030.00;;;-4.18;71.69
52032;BME280;38044;45.148;39.604;2023-02-17T03:42:31;102143.44;;;-3.54;71.83
52032;BME280;38044;45.148;39.604;2023-02-17T03:44:56;102006.47;;;-4.36;71.99
52032;BME280;38044;45.148;39.604;2023-02-17T03:47:22;102169.78;;;-3.37;71.70
52032;BME280;38044;45.148;39.604;2023-02-17T03:49:50;102178.69;;;-3.30;71.83
52032;BME280;38044;45.148;39.604;2023-02-17T03:52:17;102138.84;;;-3.44;71.72
52032;BME280;38044;45.148;39.604;2023-02-17T03:54:43;102034.47;;;-4.10;71.76
52032;BME280;38044;45.148;39.604;2023-02-17T03:57:09;102164.72;;;-3.23;72.01
52032;BME280;38044;45.148;39.604;2023-02-17T03:59:35;102170.97;;;-3.24;71.92
52032;BME280;38044;45.148;39.604;2023-02-17T04:02:01;102157.09;;;-3.42;71.96
52032;BME280;38044;45.148;39.604;2023-02-17T04:04:27;102163.22;;;-3.33;72.42
52032;BME280;38044;45.148;39.604;2023-02-17T04:06:53;102126.69;;;-3.45;72.36
52032;BME280;38044;45.148;39.604;2023-02-17T04:09:18;102166.03;;;-3.19;72.62
52032;BME280;38044;45.148;39.604;2023-02-17T04:11:44;102175.91;;;-3.21;72.22
52032;BME280;38044;45.148;39.604;2023-02-17T04:14:10;102155.00;;;-3.30;72.52
52032;BME280;38044;45.148;39.604;2023-02-17T04:16:36;102146.75;;;-3.35;72.06
52032;BME280;38044;45.148;39.604;2023-02-17T04:19:05;102179.38;;;-3.12;72.31
52032;BME280;38044;45.148;39.604;2023-02-17T04:21:31;102159.19;;;-3.11;72.11
52032;BME280;38044;45.148;39.604;2023-02-17T04:23:59;102103.69;;;-3.43;71.98
52032;BME280;38044;45.148;39.604;2023-02-17T04:26:25;102152.97;;;-2.94;71.82
52032;BME280;38044;45.148;39.604;2023-02-17T04:28:52;102158.03;;;-2.92;71.79
52032;BME280;38044;45.148;39.604;2023-02-17T04:31:17;101992.16;;;-3.99;71.84
52032;BME280;38044;45.148;39.604;2023-02-17T04:33:43;102159.03;;;-3.02;72.24
52032;BME280;38044;45.148;39.604;2023-02-17T04:36:09;102166.75;;;-2.84;71.91
52032;BME280;38044;45.148;39.604;2023-02-17T04:38:36;102100.13;;;-3.17;71.63
52032;BME280;38044;45.148;39.604;2023-02-17T04:41:03;102188.66;;;-2.75;71.69
52032;BME280;38044;45.148;39.604;2023-02-17T04:43:30;102153.13;;;-2.87;71.28
52032;BME280;38044;45.148;39.604;2023-02-17T04:45:56;102155.91;;;-2.97;71.17
52032;BME280;38044;45.148;39.604;2023-02-17T04:48:24;102170.91;;;-2.73;71.25
52032;BME280;38044;45.148;39.604;2023-02-17T04:50:50;102022.34;;;-3.60;71.10
52032;BME280;38044;45.148;39.604;2023-02-17T04:53:16;102191.16;;;-2.65;71.21
52032;BME280;38044;45.148;39.604;2023-02-17T04:55:42;102154.09;;;-2.72;71.38
52032;BME280;38044;45.148;39.604;2023-02-17T04:58:09;102172.53;;;-2.56;70.64
52032;BME280;38044;45.148;39.604;2023-02-17T05:00:35;102169.09;;;-2.56;70.48
52032;BME280;38044;45.148;39.604;2023-02-17T05:03:01;102156.41;;;-2.61;70.69
52032;BME280;38044;45.148;39.604;2023-02-17T05:05:27;102191.31;;;-2.34;70.54
52032;BME280;38044;45.148;39.604;2023-02-17T05:07:53;102181.44;;;-2.32;70.18
52032;BME280;38044;45.148;39.604;2023-02-17T05:10:19;102148.50;;;-2.53;70.69
52032;BME280;38044;45.148;39.604;2023-02-17T05:12:45;102195.25;;;-2.30;71.59
52032;BME280;38044;45.148;39.604;2023-02-17T05:15:11;102146.56;;;-2.51;72.42
52032;BME280;38044;45.148;39.604;2023-02-17T05:17:37;102167.28;;;-2.31;73.28
52032;BME280;38044;45.148;39.604;2023-02-17T05:20:04;102154.25;;;-2.24;74.18
52032;BME280;38044;45.148;39.604;2023-02-17T05:22:31;102184.34;;;-1.94;74.98
52032;BME280;38044;45.148;39.604;2023-02-17T05:24:56;102146.81;;;-2.13;75.06
52032;BME280;38044;45.148;39.604;2023-02-17T05:27:23;102133.50;;;-2.19;75.52
52032;BME280;38044;45.148;39.604;2023-02-17T05:29:49;101994.25;;;-3.03;75.47
52032;BME280;38044;45.148;39.604;2023-02-17T05:32:16;102049.81;;;-2.65;75.73
52032;BME280;38044;45.148;39.604;2023-02-17T05:34:42;102149.44;;;-1.96;76.09
52032;BME280;38044;45.148;39.604;2023-02-17T05:37:08;102212.94;;;-1.67;76.28
52032;BME280;38044;45.148;39.604;2023-02-17T05:39:35;102049.13;;;-2.59;76.33
52032;BME280;38044;45.148;39.604;2023-02-17T05:42:01;102164.91;;;-1.93;76.64
52032;BME280;38044;45.148;39.604;2023-02-17T05:44:27;102183.31;;;-1.77;76.61
52032;BME280;38044;45.148;39.604;2023-02-17T05:46:53;102151.72;;;-1.93;76.95
52032;BME280;38044;45.148;39.604;2023-02-17T05:49:18;102188.50;;;-1.52;76.77
52032;BME280;38044;45.148;39.604;2023-02-17T05:51:44;102193.44;;;-1.49;76.80
52032;BME280;38044;45.148;39.604;2023-02-17T05:54:10;102189.16;;;-1.50;76.89
52032;BME280;38044;45.148;39.604;2023-02-17T05:56:36;102142.06;;;-1.62;76.83
52032;BME280;38044;45.148;39.604;2023-02-17T05:59:02;102159.09;;;-1.41;76.48
52032;BME280;38044;45.148;39.604;2023-02-17T06:01:28;102037.28;;;-2.07;76.47
52032;BME280;38044;45.148;39.604;2023-02-17T06:03:54;102013.44;;;-2.14;76.68
52032;BME280;38044;45.148;39.604;2023-02-17T06:06:20;102169.19;;;-1.14;76.90
52032;BME280;38044;45.148;39.604;2023-02-17T06:08:46;102166.13;;;-0.94;76.65
52032;BME280;38044;45.148;39.604;2023-02-17T06:11:11;102047.72;;;-1.51;76.55
52032;BME280;38044;45.148;39.604;2023-02-17T06:13:37;102166.88;;;-0.62;76.06
52032;BME280;38044;45.148;39.604;2023-02-17T06:16:03;102020.09;;;-1.41;75.94
52032;BME280;38044;45.148;39.604;2023-02-17T06:18:29;102078.03;;;-1.01;75.62
52032;BME280;38044;45.148;39.604;2023-02-17T06:20:56;102024.50;;;-1.33;75.62
52032;BME280;38044;45.148;39.604;2023-02-17T06:23:23;102173.59;;;-0.37;75.95
52032;BME280;38044;45.148;39.604;2023-02-17T06:25:49;102110.59;;;-0.63;75.97
52032;BME280;38044;45.148;39.604;2023-02-17T06:28:15;102128.75;;;-0.45;75.82
52032;BME280;38044;45.148;39.604;2023-02-17T06:30:41;101970.47;;;-1.37;75.66
52032;BME280;38044;45.148;39.604;2023-02-17T06:33:07;102157.88;;;-0.01;75.77
52032;BME280;38044;45.148;39.604;2023-02-17T06:35:32;102156.78;;;0.24;75.52
52032;BME280;38044;45.148;39.604;2023-02-17T06:37:58;102147.09;;;0.31;75.06
52032;BME280;38044;45.148;39.604;2023-02-17T06:40:24;102159.00;;;0.71;74.61
52032;BME280;38044;45.148;39.604;2023-02-17T06:42:50;102146.09;;;0.83;73.95
52032;BME280;38044;45.148;39.604;2023-02-17T06:45:16;102133.22;;;0.95;73.39
52032;BME280;38044;45.148;39.604;2023-02-17T06:47:42;102134.78;;;1.10;73.32
52032;BME280;38044;45.148;39.604;2023-02-17T06:50:08;102104.44;;;0.92;72.95
52032;BME280;38044;45.148;39.604;2023-02-17T06:52:34;102146.25;;;1.18;73.04
52032;BME280;38044;45.148;39.604;2023-02-17T06:55:00;102135.97;;;1.29;72.93
52032;BME280;38044;45.148;39.604;2023-02-17T06:57:26;102130.22;;;1.47;72.60
52032;BME280;38044;45.148;39.604;2023-02-17T06:59:52;102131.63;;;1.43;72.59
52032;BME280;38044;45.148;39.604;2023-02-17T07:02:18;102113.66;;;1.45;72.21
52032;BME280;38044;45.148;39.604;2023-02-17T07:04:44;102101.06;;;1.47;72.42
52032;BME280;38044;45.148;39.604;2023-02-17T07:07:10;102081.25;;;1.43;72.24
52032;BME280;38044;45.148;39.604;2023-02-17T07:09:37;102135.75;;;1.52;72.16
52032;BME280;38044;45.148;39.604;2023-02-17T07:12:03;102006.53;;;0.77;72.46
52032;BME280;38044;45.148;39.604;2023-02-17T07:14:31;102071.63;;;1.14;72.62
52032;BME280;38044;45.148;39.604;2023-02-17T07:16:57;101944.75;;;0.41;72.48
52032;BME280;38044;45.148;39.604;2023-02-17T07:19:23;102096.78;;;1.46;72.82
52032;BME280;38044;45.148;39.604;2023-02-17T07:21:49;102093.06;;;1.41;72.73
52032;BME280;38044;45.148;39.604;2023-02-17T07:24:15;102114.47;;;1.46;72.66
52032;BME280;38044;45.148;39.604;2023-02-17T07:26:41;102062.34;;;1.25;72.17
52032;BME280;38044;45.148;39.604;2023-02-17T07:29:07;102063.25;;;1.32;72.58
52032;BME280;38044;45.148;39.604;2023-02-17T07:31:34;102059.75;;;1.31;72.44
52032;BME280;38044;45.148;39.604;2023-02-17T07:34:01;102101.91;;;1.54;72.29
52032;BME280;38044;45.148;39.604;2023-02-17T07:36:27;102075.13;;;1.43;72.42
52032;BME280;38044;45.148;39.604;2023-02-17T07:38:54;102041.91;;;1.12;72.39
52032;BME280;38044;45.148;39.604;2023-02-17T07:41:22;102088.59;;;1.41;72.70
52032;BME280;38044;45.148;39.604;2023-02-17T07:43:54;102051.38;;;1.28;72.76
52032;BME280;38044;45.148;39.604;2023-02-17T07:46:20;101953.97;;;0.95;72.35
52032;BME280;38044;45.148;39.604;2023-02-17T07:48:47;102087.34;;;2.07;72.12
52032;BME280;38044;45.148;39.604;2023-02-17T07:51:19;102026.44;;;1.85;70.86
52032;BME280;38044;45.148;39.604;2023-02-17T07:53:46;102084.25;;;2.03;70.80
52032;BME280;38044;45.148;39.604;2023-02-17T07:56:13;102086.78;;;1.83;71.06
52032;BME280;38044;45.148;39.604;2023-02-17T07:58:41;102057.69;;;1.55;71.47
52032;BME280;38044;45.148;39.604;2023-02-17T08:01:16;101896.91;;;0.64;71.78
52032;BME280;38044;45.148;39.604;2023-02-17T08:03:42;102085.56;;;1.79;72.14
52032;BME280;38044;45.148;39.604;2023-02-17T08:06:13;102025.69;;;1.56;71.69
52032;BME280;38044;45.148;39.604;2023-02-17T08:08:40;102047.16;;;1.68;71.39
52032;BME280;38044;45.148;39.604;2023-02-17T08:11:25;102078.69;;;1.91;71.89
52032;BME280;38044;45.148;39.604;2023-02-17T08:14:09;101912.50;;;1.09;71.40
52032;BME280;38044;45.148;39.604;2023-02-17T08:16:35;102024.41;;;1.80;71.39
52032;BME280;38044;45.148;39.604;2023-02-17T08:19:00;102074.50;;;2.03;71.44
52032;BME280;38044;45.148;39.604;2023-02-17T08:21:26;102070.41;;;2.08;71.54
52032;BME280;38044;45.148;39.604;2023-02-17T08:23:53;102063.47;;;2.07;71.33
52032;BME280;38044;45.148;39.604;2023-02-17T08:26:19;101989.59;;;1.55;71.81
52032;BME280;38044;45.148;39.604;2023-02-17T08:28:45;102017.41;;;1.73;71.83
52032;BME280;38044;45.148;39.604;2023-02-17T08:31:19;102034.25;;;2.00;72.13
52032;BME280;38044;45.148;39.604;2023-02-17T08:33:45;102072.66;;;2.11;72.49
52032;BME280;38044;45.148;39.604;2023-02-17T08:36:11;101914.25;;;1.30;72.12
52032;BME280;38044;45.148;39.604;2023-02-17T08:38:38;101981.19;;;1.87;72.04
52032;BME280;38044;45.148;39.604;2023-02-17T08:41:31;102047.50;;;2.48;71.67
52032;BME280;38044;45.148;39.604;2023-02-17T08:43:59;102052.44;;;2.58;70.79
52032;BME280;38044;45.148;39.604;2023-02-17T08:46:25;102037.25;;;2.38;70.77
52032;BME280;38044;45.148;39.604;2023-02-17T08:48:51;102012.69;;;2.23;70.85
52032;BME280;38044;45.148;39.604;2023-02-17T08:51:20;101939.56;;;1.94;71.03
52032;BME280;38044;45.148;39.604;2023-02-17T08:53:57;102005.00;;;2.55;71.16
52032;BME280;38044;45.148;39.604;2023-02-17T08:56:25;102021.81;;;3.08;70.61
52032;BME280;38044;45.148;39.604;2023-02-17T08:58:52;102038.19;;;3.12;70.49
52032;BME280;38044;45.148;39.604;2023-02-17T09:01:18;102016.50;;;3.15;70.34
52032;BME280;38044;45.148;39.604;2023-02-17T09:03:46;101984.41;;;3.16;69.80
52032;BME280;38044;45.148;39.604;2023-02-17T09:06:13;102019.31;;;3.40;69.55
52032;BME280;38044;45.148;39.604;2023-02-17T09:08:41;101975.63;;;3.03;69.64
52032;BME280;38044;45.148;39.604;2023-02-17T09:11:07;102016.28;;;3.03;69.99
52032;BME280;38044;45.148;39.604;2023-02-17T09:13:34;101966.84;;;2.82;70.05
52032;BME280;38044;45.148;39.604;2023-02-17T09:16:01;101986.25;;;2.96;70.83
52032;BME280;38044;45.148;39.604;2023-02-17T09:18:27;101990.75;;;3.09;71.52
52032;BME280;38044;45.148;39.604;2023-02-17T09:20:52;101970.66;;;3.39;71.04
52032;BME280;38044;45.148;39.604;2023-02-17T09:23:19;101976.31;;;3.63;70.06
52032;BME280;38044;45.148;39.604;2023-02-17T09:25:45;101962.97;;;3.76;70.20
52032;BME280;38044;45.148;39.604;2023-02-17T09:28:11;101952.84;;;3.53;69.68
52032;BME280;38044;45.148;39.604;2023-02-17T09:30:39;101955.88;;;3.57;69.68
52032;BME280;38044;45.148;39.604;2023-02-17T09:33:05;101794.31;;;2.49;70.46
52032;BME280;38044;45.148;39.604;2023-02-17T09:35:31;101921.63;;;3.22;70.78
52032;BME280;38044;45.148;39.604;2023-02-17T09:37:58;101942.69;;;3.30;71.17
52032;BME280;38044;45.148;39.604;2023-02-17T09:40:37;101915.66;;;3.47;71.40
52032;BME280;38044;45.148;39.604;2023-02-17T09:43:13;101899.84;;;3.52;71.15
52032;BME280;38044;45.148;39.604;2023-02-17T09:45:43;101762.03;;;3.10;70.75
52032;BME280;38044;45.148;39.604;2023-02-17T09:48:14;101869.53;;;4.29;69.90
52032;BME280;38044;45.148;39.604;2023-02-17T09:53:40;101907.13;;;4.90;68.90
52032;BME280;38044;45.148;39.604;2023-02-17T09:56:14;101879.41;;;4.72;68.94
52032;BME280;38044;45.148;39.604;2023-02-17T09:58:46;101886.09;;;5.00;69.00
52032;BME280;38044;45.148;39.604;2023-02-17T10:01:23;101877.94;;;5.32;68.01
52032;BME280;38044;45.148;39.604;2023-02-17T10:03:55;101852.88;;;5.21;67.01
52032;BME280;38044;45.148;39.604;2023-02-17T10:06:40;101742.44;;;4.62;67.30
52032;BME280;38044;45.148;39.604;2023-02-17T10:09:25;101883.25;;;5.69;66.80
52032;BME280;38044;45.148;39.604;2023-02-17T10:12:08;101880.81;;;5.67;66.89
52032;BME280;38044;45.148;39.604;2023-02-17T10:14:50;101891.25;;;5.69;66.77
52032;BME280;38044;45.148;39.604;2023-02-17T10:17:31;101893.91;;;5.69;66.50
52032;BME280;38044;45.148;39.604;2023-02-17T10:20:07;101883.13;;;5.45;66.66
52032;BME280;38044;45.148;39.604;2023-02-17T10:22:34;101844.19;;;5.26;66.96
52032;BME280;38044;45.148;39.604;2023-02-17T10:25:01;101751.22;;;4.99;66.81
52032;BME280;38044;45.148;39.604;2023-02-17T10:31:07;101867.31;;;6.46;65.32
52032;BME280;38044;45.148;39.604;2023-02-17T10:33:37;101868.25;;;6.40;64.67
52032;BME280;38044;45.148;39.604;2023-02-17T10:41:11;101723.81;;;5.10;66.26
52032;BME280;38044;45.148;39.604;2023-02-17T10:43:39;101828.72;;;5.64;65.88
52032;BME280;38044;45.148;39.604;2023-02-17T10:46:07;101808.66;;;5.74;66.08
52032;BME280;38044;45.148;39.604;2023-02-17T10:48:37;101844.97;;;6.05;66.41
52032;BME280;38044;45.148;39.604;2023-02-17T10:51:05;101837.19;;;6.03;66.08
52032;BME280;38044;45.148;39.604;2023-02-17T10:53:37;101808.59;;;5.92;66.11
52032;BME280;38044;45.148;39.604;2023-02-17T11:00:56;101698.78;;;4.63;66.46
52032;BME280;38044;45.148;39.604;2023-02-17T11:03:26;101854.09;;;5.37;66.67
52032;BME280;38044;45.148;39.604;2023-02-17T11:06:00;101769.47;;;4.84;67.05
52032;BME280;38044;45.148;39.604;2023-02-17T11:08:32;101769.47;;;4.84;67.17
52032;BME280;38044;45.148;39.604;2023-02-17T11:11:04;101783.34;;;4.86;67.47
52032;BME280;38044;45.148;39.604;2023-02-17T11:13:37;101772.19;;;4.95;67.22
52032;BME280;38044;45.148;39.604;2023-02-17T11:16:04;101799.75;;;5.19;66.88
52032;BME280;38044;45.148;39.604;2023-02-17T11:18:36;101806.00;;;5.13;67.19
52032;BME280;38044;45.148;39.604;2023-02-17T11:21:07;101797.41;;;5.11;67.11
52032;BME280;38044;45.148;39.604;2023-02-17T11:23:34;101795.03;;;5.03;67.43
52032;BME280;38044;45.148;39.604;2023-02-17T11:26:08;101628.84;;;4.19;67.14
52032;BME280;38044;45.148;39.604;2023-02-17T11:28:35;101745.16;;;4.92;67.08
52032;BME280;38044;45.148;39.604;2023-02-17T11:31:01;101774.72;;;5.20;67.44
52032;BME280;38044;45.148;39.604;2023-02-17T11:33:38;101758.56;;;5.34;66.92
52032;BME280;38044;45.148;39.604;2023-02-17T11:36:05;101699.09;;;5.03;66.50
52032;BME280;38044;45.148;39.604;2023-02-17T11:38:42;101680.56;;;5.08;66.09
52032;BME280;38044;45.148;39.604;2023-02-17T11:41:09;101743.28;;;5.41;65.84
52032;BME280;38044;45.148;39.604;2023-02-17T11:43:37;101687.66;;;5.14;65.73
52032;BME280;38044;45.148;39.604;2023-02-17T11:46:34;101748.81;;;5.70;65.63
52032;BME280;38044;45.148;39.604;2023-02-17T11:49:28;101746.03;;;5.76;65.58
52032;BME280;38044;45.148;39.604;2023-02-17T11:55:01;101737.34;;;5.81;64.74
52032;BME280;38044;45.148;39.604;2023-02-17T11:57:44;101714.50;;;5.85;64.02
52032;BME280;38044;45.148;39.604;2023-02-17T12:01:15;101723.19;;;5.92;63.98
52032;BME280;38044;45.148;39.604;2023-02-17T12:12:00;101731.03;;;5.63;64.29
52032;BME280;38044;45.148;39.604;2023-02-17T12:23:19;101743.28;;;5.41;64.85
52032;BME280;38044;45.148;39.604;2023-02-17T12:26:12;101691.75;;;5.29;64.85
52032;BME280;38044;45.148;39.604;2023-02-17T12:29:05;101711.63;;;5.33;64.96
52032;BME280;38044;45.148;39.604;2023-02-17T12:31:59;101715.19;;;5.27;65.21
52032;BME280;38044;45.148;39.604;2023-02-17T12:34:40;101696.03;;;5.18;65.63
52032;BME280;38044;45.148;39.604;2023-02-17T12:37:30;101670.81;;;5.02;65.27
52032;BME280;38044;45.148;39.604;2023-02-17T12:40:01;101702.44;;;4.99;65.98
52032;BME280;38044;45.148;39.604;2023-02-17T12:42:35;101654.66;;;4.55;66.45
52032;BME280;38044;45.148;39.604;2023-02-17T12:45:03;101706.09;;;4.86;66.54
52032;BME280;38044;45.148;39.604;2023-02-17T12:47:43;101671.19;;;4.57;66.91
52032;BME280;38044;45.148;39.604;2023-02-17T12:50:26;101562.84;;;3.91;66.91
52032;BME280;38044;45.148;39.604;2023-02-17T12:52:58;101700.44;;;4.64;67.33
52032;BME280;38044;45.148;39.604;2023-02-17T12:58:06;101690.13;;;4.67;68.48
52032;BME280;38044;45.148;39.604;2023-02-17T13:00:39;101549.09;;;3.75;68.19
52032;BME280;38044;45.148;39.604;2023-02-17T13:03:07;101675.81;;;4.50;68.49
52032;BME280;38044;45.148;39.604;2023-02-17T13:08:19;101666.91;;;4.56;68.74
52032;BME280;38044;45.148;39.604;2023-02-17T13:10:59;101688.94;;;4.63;69.14
52032;BME280;38044;45.148;39.604;2023-02-17T13:13:28;101676.16;;;4.54;69.00
52032;BME280;38044;45.148;39.604;2023-02-17T13:18:37;101662.63;;;4.37;69.37
52032;BME280;38044;45.148;39.604;2023-02-17T13:24:14;101646.50;;;4.32;69.75
52032;BME280;38044;45.148;39.604;2023-02-17T13:26:41;101565.09;;;3.69;70.02
52032;BME280;38044;45.148;39.604;2023-02-17T13:31:52;101632.00;;;4.09;70.50
52032;BME280;38044;45.148;39.604;2023-02-17T13:36:56;101667.28;;;4.23;70.80
52032;BME280;38044;45.148;39.604;2023-02-17T13:41:52;101654.66;;;4.18;71.11
52032;BME280;38044;45.148;39.604;2023-02-17T13:44:28;101669.13;;;4.22;71.13
52032;BME280;38044;45.148;39.604;2023-02-17T13:47:05;101653.84;;;4.18;71.50
52032;BME280;38044;45.148;39.604;2023-02-17T13:49:33;101492.13;;;3.03;70.94
52032;BME280;38044;45.148;39.604;2023-02-17T13:52:10;101540.66;;;3.42;70.69
52032;BME280;38044;45.148;39.604;2023-02-17T13:54:50;101611.97;;;3.88;70.90
52032;BME280;38044;45.148;39.604;2023-02-17T13:57:28;101637.56;;;4.07;70.67
52032;BME280;38044;45.148;39.604;2023-02-17T14:00:24;101481.06;;;3.06;70.83
52032;BME280;38044;45.148;39.604;2023-02-17T14:02:52;101516.63;;;3.05;71.14
52032;BME280;38044;45.148;39.604;2023-02-17T14:10:50;101575.56;;;3.20;71.85
52032;BME280;38044;45.148;39.604;2023-02-17T14:13:16;101614.41;;;3.46;72.10
52032;BME280;38044;45.148;39.604;2023-02-17T14:16:24;101623.03;;;3.42;72.41
52032;BME280;38044;45.148;39.604;2023-02-17T14:48:39;101357.19;;;0.96;75.45
52032;BME280;38044;45.148;39.604;2023-02-17T14:51:12;101628.13;;;2.86;75.22